createdAt,value
2018-03-22T00:00:00.841Z,0
2018-03-22T00:01:00.524Z,0
2018-03-22T00:02:00.492Z,0
2018-03-22T00:02:59.973Z,0
2018-03-22T00:04:00.472Z,0
2018-03-22T00:05:00.423Z,0
2018-03-22T00:06:00.409Z,0
2018-03-22T00:07:00.384Z,0
2018-03-22T00:08:00.359Z,0
2018-03-22T00:09:00.118Z,0
2018-03-22T00:10:00.325Z,0
2018-03-22T00:11:00.300Z,0
2018-03-22T00:12:00.001Z,0
2018-03-22T00:13:00.514Z,0
2018-03-22T00:14:00.246Z,0
2018-03-22T00:15:00.207Z,0
2018-03-22T00:15:59.911Z,0
2018-03-22T00:17:00.162Z,0
2018-03-22T00:17:59.650Z,0
2018-03-22T00:19:00.132Z,0
2018-03-22T00:20:00.105Z,0
2018-03-22T00:20:59.547Z,0
2018-03-22T00:22:00.441Z,0
2018-03-22T00:22:59.792Z,0
2018-03-22T00:23:59.759Z,0
2018-03-22T00:25:00.045Z,0
2018-03-22T00:26:00.118Z,0
2018-03-22T00:26:59.999Z,0
2018-03-22T00:27:59.665Z,0
2018-03-22T00:29:00.253Z,0
2018-03-22T00:30:00.231Z,0
2018-03-22T00:30:59.993Z,0
2018-03-22T00:31:59.776Z,0
2018-03-22T00:32:59.568Z,0
2018-03-22T00:33:59.868Z,0
2018-03-22T00:35:00.052Z,0
2018-03-22T00:35:59.719Z,0
2018-03-22T00:36:59.204Z,0
2018-03-22T00:37:59.706Z,0
2018-03-22T00:38:59.714Z,0
2018-03-22T00:39:59.745Z,0
2018-03-22T00:40:59.427Z,0
2018-03-22T00:41:59.975Z,0
2018-03-22T00:42:59.609Z,0
2018-03-22T00:43:59.573Z,0
2018-03-22T00:44:59.380Z,0
2018-03-22T00:45:59.276Z,0
2018-03-22T00:46:59.242Z,0
2018-03-22T00:47:59.863Z,0
2018-03-22T00:48:59.472Z,0
2018-03-22T00:49:59.221Z,0
2018-03-22T00:50:59.489Z,0
2018-03-22T00:51:59.397Z,0
2018-03-22T00:52:59.644Z,0
2018-03-22T00:53:59.621Z,0
2018-03-22T00:54:59.344Z,0
2018-03-22T00:55:59.594Z,0
2018-03-22T00:56:59.570Z,0
2018-03-22T00:57:59.543Z,0
2018-03-22T00:58:59.261Z,0
2018-03-22T00:59:59.237Z,0
2018-03-22T01:00:59.214Z,0
2018-03-22T01:01:59.459Z,0
2018-03-22T01:02:58.902Z,0
2018-03-22T01:03:58.887Z,0
2018-03-22T01:04:59.150Z,0
2018-03-22T01:05:59.360Z,0
2018-03-22T01:06:58.822Z,0
2018-03-22T01:07:59.126Z,0
2018-03-22T01:08:59.343Z,0
2018-03-22T01:09:58.756Z,0
2018-03-22T01:10:58.474Z,0
2018-03-22T01:11:58.968Z,0
2018-03-22T01:12:58.788Z,0
2018-03-22T01:13:58.675Z,0
2018-03-22T01:14:58.655Z,0
2018-03-22T01:15:58.350Z,0
2018-03-22T01:16:58.866Z,0
2018-03-22T01:17:58.845Z,0
2018-03-22T01:18:58.875Z,0
2018-03-22T01:19:58.864Z,0
2018-03-22T01:20:58.842Z,0
2018-03-22T01:21:58.586Z,0
2018-03-22T01:22:58.738Z,0
2018-03-22T01:23:59.026Z,0
2018-03-22T01:24:58.447Z,0
2018-03-22T01:25:58.417Z,0
2018-03-22T01:26:58.648Z,0
2018-03-22T01:27:58.366Z,0
2018-03-22T01:28:58.335Z,0
2018-03-22T01:29:58.585Z,0
2018-03-22T01:30:58.585Z,0
2018-03-22T01:31:58.889Z,0
2018-03-22T01:32:58.545Z,0
2018-03-22T01:33:58.228Z,0
2018-03-22T01:34:58.229Z,0
2018-03-22T01:35:58.504Z,0
2018-03-22T01:36:58.905Z,0
2018-03-22T01:37:58.508Z,0
2018-03-22T01:38:58.314Z,0
2018-03-22T01:39:58.635Z,0
2018-03-22T01:40:58.336Z,0
2018-03-22T01:41:58.329Z,0
2018-03-22T01:42:57.780Z,0
2018-03-22T01:43:58.305Z,0
2018-03-22T01:44:58.054Z,0
2018-03-22T01:45:58.340Z,0
2018-03-22T01:46:58.487Z,0
2018-03-22T01:47:58.190Z,0
2018-03-22T01:48:58.297Z,0
2018-03-22T01:49:58.219Z,0
2018-03-22T01:50:58.140Z,0
2018-03-22T01:51:58.408Z,0
2018-03-22T01:52:58.098Z,0
2018-03-22T01:53:57.817Z,0
2018-03-22T01:54:58.298Z,0
2018-03-22T01:55:58.602Z,0
2018-03-22T01:56:58.664Z,0
2018-03-22T01:57:57.715Z,0
2018-03-22T01:58:57.779Z,0
2018-03-22T01:59:57.809Z,0
2018-03-22T02:00:58.351Z,0
2018-03-22T02:01:57.629Z,0
2018-03-22T02:02:58.133Z,0
2018-03-22T02:03:57.698Z,0
2018-03-22T02:04:57.659Z,0
2018-03-22T02:05:57.829Z,0
2018-03-22T02:06:58.047Z,0
2018-03-22T02:07:58.186Z,0
2018-03-22T02:08:57.534Z,0
2018-03-22T02:09:57.887Z,0
2018-03-22T02:10:57.969Z,0
2018-03-22T02:11:57.797Z,0
2018-03-22T02:12:57.472Z,0
2018-03-22T02:13:57.361Z,0
2018-03-22T02:14:57.613Z,0
2018-03-22T02:15:57.580Z,0
2018-03-22T02:16:57.028Z,0
2018-03-22T02:17:57.551Z,0
2018-03-22T02:18:57.779Z,0
2018-03-22T02:19:57.519Z,0
2018-03-22T02:20:57.570Z,0
2018-03-22T02:21:57.487Z,0
2018-03-22T02:22:57.558Z,0
2018-03-22T02:23:57.194Z,0
2018-03-22T02:24:57.649Z,0
2018-03-22T02:25:57.353Z,0
2018-03-22T02:26:57.404Z,0
2018-03-22T02:27:57.050Z,0
2018-03-22T02:28:57.109Z,0
2018-03-22T02:29:57.006Z,0
2018-03-22T02:30:57.652Z,0
2018-03-22T02:31:57.245Z,0
2018-03-22T02:32:57.302Z,0
2018-03-22T02:33:57.510Z,0
2018-03-22T02:34:57.176Z,0
2018-03-22T02:35:57.160Z,0
2018-03-22T02:36:57.193Z,0
2018-03-22T02:37:57.115Z,0
2018-03-22T02:38:56.823Z,0
2018-03-22T02:39:57.071Z,0
2018-03-22T02:40:57.116Z,0
2018-03-22T02:41:56.754Z,0
2018-03-22T02:42:57.078Z,0
2018-03-22T02:43:56.987Z,0
2018-03-22T02:44:56.972Z,0
2018-03-22T02:45:56.689Z,0
2018-03-22T02:46:56.932Z,0
2018-03-22T02:47:56.936Z,0
2018-03-22T02:48:56.613Z,0
2018-03-22T02:49:56.782Z,0
2018-03-22T02:50:56.847Z,0
2018-03-22T02:51:56.822Z,0
2018-03-22T02:52:56.807Z,0
2018-03-22T02:53:57.043Z,0
2018-03-22T02:54:56.745Z,0
2018-03-22T02:55:56.835Z,0
2018-03-22T02:56:56.869Z,0
2018-03-22T02:57:56.761Z,0
2018-03-22T02:58:57.003Z,0
2018-03-22T02:59:56.671Z,0
2018-03-22T03:00:56.634Z,0
2018-03-22T03:01:56.885Z,0
2018-03-22T03:02:56.328Z,0
2018-03-22T03:03:56.565Z,0
2018-03-22T03:04:56.545Z,0
2018-03-22T03:05:56.608Z,0
2018-03-22T03:06:55.954Z,0
2018-03-22T03:07:56.604Z,0
2018-03-22T03:08:56.739Z,0
2018-03-22T03:09:56.880Z,0
2018-03-22T03:10:55.941Z,0
2018-03-22T03:11:56.402Z,0
2018-03-22T03:12:56.746Z,0
2018-03-22T03:13:56.505Z,0
2018-03-22T03:14:56.094Z,0
2018-03-22T03:15:56.366Z,0
2018-03-22T03:16:56.535Z,0
2018-03-22T03:17:56.270Z,0
2018-03-22T03:18:56.493Z,0
2018-03-22T03:19:56.214Z,0
2018-03-22T03:20:55.764Z,0
2018-03-22T03:21:55.888Z,0
2018-03-22T03:22:55.619Z,0
2018-03-22T03:23:56.122Z,0
2018-03-22T03:24:55.837Z,0
2018-03-22T03:25:56.078Z,0
2018-03-22T03:26:55.972Z,0
2018-03-22T03:27:56.138Z,0
2018-03-22T03:28:56.141Z,0
2018-03-22T03:29:55.796Z,0
2018-03-22T03:30:55.858Z,0
2018-03-22T03:31:55.519Z,0
2018-03-22T03:32:55.949Z,0
2018-03-22T03:33:55.970Z,0
2018-03-22T03:34:55.664Z,0
2018-03-22T03:35:55.676Z,0
2018-03-22T03:36:56.173Z,0
2018-03-22T03:37:55.540Z,0
2018-03-22T03:38:55.900Z,0
2018-03-22T03:39:56.115Z,0
2018-03-22T03:40:55.549Z,0
2018-03-22T03:41:55.797Z,0
2018-03-22T03:42:56.055Z,0
2018-03-22T03:43:55.477Z,0
2018-03-22T03:44:55.806Z,0
2018-03-22T03:45:55.922Z,0
2018-03-22T03:46:56.049Z,0
2018-03-22T03:47:55.585Z,0
2018-03-22T03:48:55.655Z,0
2018-03-22T03:49:55.855Z,0
2018-03-22T03:50:55.048Z,0
2018-03-22T03:51:55.842Z,0
2018-03-22T03:52:55.596Z,0
2018-03-22T03:53:55.233Z,0
2018-03-22T03:54:55.856Z,0
2018-03-22T03:55:56.058Z,0
2018-03-22T03:56:55.258Z,0
2018-03-22T03:57:55.528Z,0
2018-03-22T03:58:55.101Z,0
2018-03-22T03:59:55.402Z,0
2018-03-22T04:00:55.531Z,0
2018-03-22T04:01:55.161Z,0
2018-03-22T04:02:55.104Z,0
2018-03-22T04:03:55.529Z,0
2018-03-22T04:04:55.624Z,0
2018-03-22T04:05:54.964Z,0
2018-03-22T04:06:55.260Z,0
2018-03-22T04:07:55.039Z,0
2018-03-22T04:08:55.186Z,0
2018-03-22T04:09:55.262Z,0
2018-03-22T04:10:55.328Z,0
2018-03-22T04:11:55.379Z,0
2018-03-22T04:12:54.710Z,0
2018-03-22T04:13:55.137Z,0
2018-03-22T04:14:54.758Z,0
2018-03-22T04:15:54.800Z,0
2018-03-22T04:16:54.976Z,0
2018-03-22T04:17:54.688Z,0
2018-03-22T04:18:55.214Z,0
2018-03-22T04:19:55.273Z,0
2018-03-22T04:20:54.986Z,0
2018-03-22T04:21:55.278Z,0
2018-03-22T04:22:55.051Z,0
2018-03-22T04:23:55.320Z,0
2018-03-22T04:24:55.086Z,0
2018-03-22T04:25:54.645Z,0
2018-03-22T04:26:55.070Z,0
2018-03-22T04:27:54.616Z,0
2018-03-22T04:28:54.818Z,0
2018-03-22T04:29:54.665Z,0
2018-03-22T04:30:54.586Z,0
2018-03-22T04:31:54.223Z,0
2018-03-22T04:32:54.911Z,0
2018-03-22T04:33:54.355Z,0
2018-03-22T04:34:54.334Z,0
2018-03-22T04:35:54.374Z,0
2018-03-22T04:36:54.552Z,0
2018-03-22T04:37:54.633Z,0
2018-03-22T04:38:54.371Z,0
2018-03-22T04:39:54.522Z,0
2018-03-22T04:40:54.732Z,0
2018-03-22T04:41:54.182Z,0
2018-03-22T04:42:54.696Z,0
2018-03-22T04:43:54.784Z,0
2018-03-22T04:44:54.107Z,0
2018-03-22T04:45:54.124Z,0
2018-03-22T04:46:54.589Z,0
2018-03-22T04:47:54.317Z,0
2018-03-22T04:48:54.471Z,0
2018-03-22T04:49:54.606Z,0
2018-03-22T04:50:54.249Z,0
2018-03-22T04:51:53.983Z,0
2018-03-22T04:52:53.952Z,0
2018-03-22T04:53:54.293Z,0
2018-03-22T04:54:54.421Z,0
2018-03-22T04:55:53.604Z,0
2018-03-22T04:56:53.844Z,0
2018-03-22T04:57:54.226Z,0
2018-03-22T04:58:54.593Z,0
2018-03-22T04:59:54.227Z,0
2018-03-22T05:00:53.979Z,0
2018-03-22T05:01:54.261Z,0
2018-03-22T05:02:53.863Z,0
2018-03-22T05:03:54.495Z,0
2018-03-22T05:04:54.497Z,0
2018-03-22T05:05:54.301Z,4
2018-03-22T05:06:54.050Z,4
2018-03-22T05:07:54.550Z,0
2018-03-22T05:08:53.989Z,4
2018-03-22T05:09:53.547Z,4
2018-03-22T05:10:54.168Z,4
2018-03-22T05:11:54.029Z,8
2018-03-22T05:12:54.249Z,4
2018-03-22T05:13:53.771Z,8
2018-03-22T05:14:53.657Z,8
2018-03-22T05:15:53.878Z,8
2018-03-22T05:16:53.853Z,12
2018-03-22T05:17:53.507Z,16
2018-03-22T05:18:54.163Z,12
2018-03-22T05:19:54.199Z,16
2018-03-22T05:20:53.476Z,20
2018-03-22T05:21:53.706Z,16
2018-03-22T05:22:54.055Z,20
2018-03-22T05:23:53.434Z,20
2018-03-22T05:24:53.703Z,24
2018-03-22T05:25:53.868Z,24
2018-03-22T05:26:54.012Z,32
2018-03-22T05:27:53.916Z,32
2018-03-22T05:28:53.262Z,28
2018-03-22T05:29:53.382Z,36
2018-03-22T05:30:53.817Z,40
2018-03-22T05:31:53.432Z,44
2018-03-22T05:32:53.448Z,52
2018-03-22T05:33:53.739Z,48
2018-03-22T05:34:53.712Z,60
2018-03-22T05:35:53.377Z,64
2018-03-22T05:36:53.454Z,68
2018-03-22T05:37:53.092Z,80
2018-03-22T05:38:53.733Z,84
2018-03-22T05:39:53.444Z,92
2018-03-22T05:40:53.171Z,88
2018-03-22T05:41:53.195Z,96
2018-03-22T05:42:53.347Z,112
2018-03-22T05:43:53.003Z,120
2018-03-22T05:44:52.873Z,124
2018-03-22T05:45:53.301Z,132
2018-03-22T05:46:53.004Z,140
2018-03-22T05:47:53.235Z,156
2018-03-22T05:48:52.949Z,172
2018-03-22T05:49:52.653Z,188
2018-03-22T05:50:53.177Z,172
2018-03-22T05:51:53.145Z,220
2018-03-22T05:52:53.164Z,240
2018-03-22T05:53:52.564Z,260
2018-03-22T05:54:52.803Z,308
2018-03-22T05:55:53.390Z,364
2018-03-22T05:56:52.499Z,388
2018-03-22T05:57:52.477Z,384
2018-03-22T05:58:52.720Z,360
2018-03-22T05:59:52.700Z,336
2018-03-22T06:00:52.674Z,388
2018-03-22T06:01:52.387Z,376
2018-03-22T06:02:52.893Z,372
2018-03-22T06:03:52.333Z,388
2018-03-22T06:04:52.594Z,364
2018-03-22T06:05:52.560Z,292
2018-03-22T06:06:52.807Z,296
2018-03-22T06:07:52.254Z,344
2018-03-22T06:08:52.642Z,336
2018-03-22T06:09:52.206Z,324
2018-03-22T06:10:52.719Z,408
2018-03-22T06:11:52.161Z,424
2018-03-22T06:12:51.871Z,408
2018-03-22T06:13:52.116Z,408
2018-03-22T06:14:52.350Z,400
2018-03-22T06:15:52.077Z,444
2018-03-22T06:16:52.316Z,428
2018-03-22T06:17:52.027Z,396
2018-03-22T06:18:52.285Z,424
2018-03-22T06:19:52.238Z,440
2018-03-22T06:20:52.232Z,404
2018-03-22T06:21:51.941Z,520
2018-03-22T06:22:51.914Z,468
2018-03-22T06:23:51.888Z,476
2018-03-22T06:24:52.399Z,532
2018-03-22T06:25:52.140Z,612
2018-03-22T06:26:52.083Z,528
2018-03-22T06:27:52.333Z,588
2018-03-22T06:28:51.774Z,568
2018-03-22T06:29:51.757Z,592
2018-03-22T06:30:51.738Z,760
2018-03-22T06:31:51.706Z,844
2018-03-22T06:32:52.055Z,1160
2018-03-22T06:33:51.936Z,1012
2018-03-22T06:34:51.644Z,940
2018-03-22T06:35:51.626Z,808
2018-03-22T06:36:52.142Z,840
2018-03-22T06:37:51.572Z,696
2018-03-22T06:38:51.604Z,860
2018-03-22T06:39:51.784Z,824
2018-03-22T06:40:51.775Z,800
2018-03-22T06:41:51.755Z,656
2018-03-22T06:42:51.731Z,904
2018-03-22T06:43:51.701Z,948
2018-03-22T06:44:51.744Z,1060
2018-03-22T06:45:51.398Z,1076
2018-03-22T06:46:51.640Z,968
2018-03-22T06:47:51.350Z,892
2018-03-22T06:48:51.595Z,1016
2018-03-22T06:49:51.044Z,1072
2018-03-22T06:50:51.285Z,1192
2018-03-22T06:51:50.997Z,868
2018-03-22T06:52:51.501Z,820
2018-03-22T06:53:51.480Z,1012
2018-03-22T06:54:51.450Z,948
2018-03-22T06:55:51.697Z,1004
2018-03-22T06:56:51.149Z,720
2018-03-22T06:57:51.386Z,828
2018-03-22T06:58:50.835Z,804
2018-03-22T06:59:51.612Z,1024
2018-03-22T07:00:51.326Z,1124
2018-03-22T07:01:51.071Z,920
2018-03-22T07:02:51.553Z,828
2018-03-22T07:03:51.271Z,796
2018-03-22T07:04:51.235Z,660
2018-03-22T07:05:50.953Z,616
2018-03-22T07:06:51.195Z,736
2018-03-22T07:07:51.172Z,672
2018-03-22T07:08:51.145Z,596
2018-03-22T07:09:50.862Z,736
2018-03-22T07:10:51.380Z,868
2018-03-22T07:11:51.070Z,944
2018-03-22T07:12:51.066Z,920
2018-03-22T07:13:51.044Z,740
2018-03-22T07:14:50.755Z,756
2018-03-22T07:15:50.999Z,744
2018-03-22T07:16:51.230Z,904
2018-03-22T07:17:50.944Z,980
2018-03-22T07:18:50.920Z,1040
2018-03-22T07:19:50.928Z,936
2018-03-22T07:20:51.138Z,880
2018-03-22T07:21:51.134Z,688
2018-03-22T07:22:50.836Z,808
2018-03-22T07:23:50.804Z,992
2018-03-22T07:24:50.785Z,1296
2018-03-22T07:25:51.019Z,936
2018-03-22T07:26:51.015Z,944
2018-03-22T07:27:50.716Z,792
2018-03-22T07:28:50.694Z,808
2018-03-22T07:29:50.407Z,1012
2018-03-22T07:30:50.922Z,912
2018-03-22T07:31:50.630Z,740
2018-03-22T07:32:50.334Z,900
2018-03-22T07:33:50.317Z,1088
2018-03-22T07:34:50.294Z,1276
2018-03-22T07:35:50.547Z,1032
2018-03-22T07:36:50.599Z,996
2018-03-22T07:37:50.497Z,1068
2018-03-22T07:38:50.470Z,1120
2018-03-22T07:39:50.188Z,1396
2018-03-22T07:40:49.986Z,1644
2018-03-22T07:41:49.900Z,1276
2018-03-22T07:42:50.659Z,1024
2018-03-22T07:43:50.376Z,852
2018-03-22T07:44:50.633Z,960
2018-03-22T07:45:50.576Z,964
2018-03-22T07:46:50.028Z,1088
2018-03-22T07:47:50.004Z,992
2018-03-22T07:48:50.513Z,984
2018-03-22T07:49:49.692Z,1052
2018-03-22T07:50:50.199Z,1268
2018-03-22T07:51:50.183Z,1260
2018-03-22T07:52:50.481Z,1872
2018-03-22T07:53:50.139Z,1800
2018-03-22T07:54:50.110Z,2112
2018-03-22T07:55:50.093Z,1812
2018-03-22T07:56:49.534Z,1508
2018-03-22T07:57:50.308Z,1424
2018-03-22T07:58:49.752Z,1208
2018-03-22T07:59:50.002Z,1152
2018-03-22T08:00:50.280Z,1304
2018-03-22T08:01:50.238Z,1276
2018-03-22T08:02:49.937Z,1224
2018-03-22T08:03:49.914Z,1140
2018-03-22T08:04:49.618Z,1172
2018-03-22T08:05:50.114Z,1324
2018-03-22T08:06:49.836Z,1196
2018-03-22T08:07:49.818Z,1028
2018-03-22T08:08:49.792Z,980
2018-03-22T08:09:49.240Z,1164
2018-03-22T08:10:50.022Z,1248
2018-03-22T08:11:49.455Z,1540
2018-03-22T08:12:49.435Z,1616
2018-03-22T08:13:49.694Z,1872
2018-03-22T08:14:49.390Z,2056
2018-03-22T08:15:49.369Z,3084
2018-03-22T08:16:49.880Z,3564
2018-03-22T08:17:49.869Z,3156
2018-03-22T08:18:49.836Z,3328
2018-03-22T08:19:49.545Z,3500
2018-03-22T08:20:49.264Z,3560
2018-03-22T08:21:49.505Z,2368
2018-03-22T08:22:49.750Z,1964
2018-03-22T08:23:49.475Z,1988
2018-03-22T08:24:48.915Z,1884
2018-03-22T08:25:49.417Z,2116
2018-03-22T08:26:48.861Z,2236
2018-03-22T08:27:49.372Z,2380
2018-03-22T08:28:49.134Z,2796
2018-03-22T08:29:49.331Z,3084
2018-03-22T08:30:49.042Z,2488
2018-03-22T08:31:49.284Z,2196
2018-03-22T08:32:49.259Z,2072
2018-03-22T08:33:49.235Z,2568
2018-03-22T08:34:48.940Z,2464
2018-03-22T08:35:48.932Z,2528
2018-03-22T08:36:48.899Z,2380
2018-03-22T08:37:49.150Z,2280
2018-03-22T08:38:49.128Z,2092
2018-03-22T08:39:49.369Z,2576
2018-03-22T08:40:49.334Z,2228
2018-03-22T08:41:49.065Z,2268
2018-03-22T08:42:49.027Z,1808
2018-03-22T08:43:49.009Z,2044
2018-03-22T08:44:48.995Z,2140
2018-03-22T08:45:48.432Z,2024
2018-03-22T08:46:48.936Z,2216
2018-03-22T08:47:48.922Z,2252
2018-03-22T08:48:48.639Z,2468
2018-03-22T08:49:48.614Z,2076
2018-03-22T08:50:49.116Z,2660
2018-03-22T08:51:48.832Z,2312
2018-03-22T08:52:49.069Z,2292
2018-03-22T08:53:48.788Z,1784
2018-03-22T08:54:48.846Z,1876
2018-03-22T08:55:48.739Z,1788
2018-03-22T08:56:48.458Z,1996
2018-03-22T08:57:48.426Z,2144
2018-03-22T08:58:48.414Z,2192
2018-03-22T08:59:48.451Z,2168
2018-03-22T09:00:48.102Z,2056
2018-03-22T09:01:48.545Z,2204
2018-03-22T09:02:48.318Z,2104
2018-03-22T09:03:48.294Z,2252
2018-03-22T09:04:48.275Z,2356
2018-03-22T09:05:48.251Z,2580
2018-03-22T09:06:48.228Z,2436
2018-03-22T09:07:47.943Z,2224
2018-03-22T09:08:48.460Z,2068
2018-03-22T09:09:47.953Z,2180
2018-03-22T09:10:48.737Z,2048
2018-03-22T09:11:48.123Z,2020
2018-03-22T09:12:48.361Z,2272
2018-03-22T09:13:48.352Z,2380
2018-03-22T09:14:48.069Z,2172
2018-03-22T09:15:48.561Z,2376
2018-03-22T09:16:48.009Z,2440
2018-03-22T09:17:48.256Z,2840
2018-03-22T09:18:48.226Z,2600
2018-03-22T09:19:48.219Z,2776
2018-03-22T09:20:47.655Z,2976
2018-03-22T09:21:48.432Z,2476
2018-03-22T09:22:48.172Z,2524
2018-03-22T09:23:48.140Z,2564
2018-03-22T09:24:48.109Z,2316
2018-03-22T09:25:48.347Z,2284
2018-03-22T09:26:48.326Z,2608
2018-03-22T09:27:47.801Z,3076
2018-03-22T09:28:48.293Z,3640
2018-03-22T09:29:47.742Z,4640
2018-03-22T09:30:47.973Z,3276
2018-03-22T09:31:47.944Z,3032
2018-03-22T09:32:47.944Z,2772
2018-03-22T09:33:47.906Z,3036
2018-03-22T09:34:47.619Z,2844
2018-03-22T09:35:47.863Z,2900
2018-03-22T09:36:47.838Z,2452
2018-03-22T09:37:47.825Z,2628
2018-03-22T09:38:47.543Z,2996
2018-03-22T09:39:47.536Z,2556
2018-03-22T09:40:47.753Z,2560
2018-03-22T09:41:47.481Z,2616
2018-03-22T09:42:47.787Z,2576
2018-03-22T09:43:47.730Z,2832
2018-03-22T09:44:47.397Z,3520
2018-03-22T09:45:47.122Z,3016
2018-03-22T09:46:47.354Z,3240
2018-03-22T09:47:47.065Z,3012
2018-03-22T09:48:47.310Z,2464
2018-03-22T09:49:47.292Z,2892
2018-03-22T09:50:47.528Z,3076
2018-03-22T09:51:47.530Z,3424
2018-03-22T09:52:47.503Z,3036
2018-03-22T09:53:47.215Z,2720
2018-03-22T09:54:47.182Z,2604
2018-03-22T09:55:47.156Z,2184
2018-03-22T09:56:47.650Z,2176
2018-03-22T09:57:47.161Z,2272
2018-03-22T09:58:47.387Z,2256
2018-03-22T09:59:47.602Z,2452
2018-03-22T10:00:47.326Z,2540
2018-03-22T10:01:47.309Z,2828
2018-03-22T10:02:47.650Z,2268
2018-03-22T10:03:47.277Z,2480
2018-03-22T10:04:47.253Z,3084
2018-03-22T10:05:47.208Z,3252
2018-03-22T10:06:47.195Z,3300
2018-03-22T10:07:47.221Z,2648
2018-03-22T10:08:47.316Z,2876
2018-03-22T10:09:46.930Z,2768
2018-03-22T10:10:46.906Z,3056
2018-03-22T10:11:46.821Z,2904
2018-03-22T10:12:46.622Z,2284
2018-03-22T10:13:47.043Z,2304
2018-03-22T10:14:47.161Z,1924
2018-03-22T10:15:46.997Z,1752
2018-03-22T10:16:46.719Z,2092
2018-03-22T10:17:46.967Z,2464
2018-03-22T10:18:46.972Z,2860
2018-03-22T10:19:46.643Z,2712
2018-03-22T10:20:46.620Z,2892
2018-03-22T10:21:46.743Z,2896
2018-03-22T10:22:46.896Z,2916
2018-03-22T10:23:47.101Z,3216
2018-03-22T10:24:46.806Z,4212
2018-03-22T10:25:46.794Z,3568
2018-03-22T10:26:46.768Z,3312
2018-03-22T10:27:46.754Z,3552
2018-03-22T10:28:46.842Z,3852
2018-03-22T10:29:46.982Z,3384
2018-03-22T10:30:46.723Z,3220
2018-03-22T10:31:46.691Z,2908
2018-03-22T10:32:46.667Z,2584
2018-03-22T10:33:46.392Z,2396
2018-03-22T10:34:46.652Z,2600
2018-03-22T10:35:46.618Z,2816
2018-03-22T10:36:46.854Z,3096
2018-03-22T10:37:46.852Z,2724
2018-03-22T10:38:46.534Z,2692
2018-03-22T10:39:46.756Z,2752
2018-03-22T10:40:46.517Z,3308
2018-03-22T10:41:46.480Z,3232
2018-03-22T10:42:46.748Z,3420
2018-03-22T10:43:46.753Z,3284
2018-03-22T10:44:46.465Z,3244
2018-03-22T10:45:46.370Z,3284
2018-03-22T10:46:46.095Z,3240
2018-03-22T10:47:46.782Z,3124
2018-03-22T10:48:46.653Z,3680
2018-03-22T10:49:46.564Z,3824
2018-03-22T10:50:46.585Z,4140
2018-03-22T10:51:46.000Z,3588
2018-03-22T10:52:46.044Z,3632
2018-03-22T10:53:45.926Z,3948
2018-03-22T10:54:46.176Z,3600
2018-03-22T10:55:46.156Z,3836
2018-03-22T10:56:46.403Z,3516
2018-03-22T10:57:46.116Z,3076
2018-03-22T10:58:45.829Z,3468
2018-03-22T10:59:45.807Z,3288
2018-03-22T11:00:46.052Z,3800
2018-03-22T11:01:46.027Z,4200
2018-03-22T11:02:45.477Z,4316
2018-03-22T11:03:45.726Z,4084
2018-03-22T11:04:46.253Z,3764
2018-03-22T11:05:45.962Z,3556
2018-03-22T11:06:45.665Z,3516
2018-03-22T11:07:45.906Z,3624
2018-03-22T11:08:45.893Z,3716
2018-03-22T11:09:45.860Z,3528
2018-03-22T11:10:46.124Z,3576
2018-03-22T11:11:45.830Z,3876
2018-03-22T11:12:46.071Z,4532
2018-03-22T11:13:45.517Z,3968
2018-03-22T11:14:45.235Z,3712
2018-03-22T11:15:46.013Z,4540
2018-03-22T11:16:45.984Z,4012
2018-03-22T11:17:45.967Z,4480
2018-03-22T11:18:45.155Z,3768
2018-03-22T11:19:45.968Z,3760
2018-03-22T11:20:45.647Z,3352
2018-03-22T11:21:45.628Z,4028
2018-03-22T11:22:45.341Z,3668
2018-03-22T11:23:45.325Z,3568
2018-03-22T11:24:45.031Z,3412
2018-03-22T11:25:45.280Z,3880
2018-03-22T11:26:45.549Z,4732
2018-03-22T11:27:45.772Z,5800
2018-03-22T11:28:45.224Z,6440
2018-03-22T11:29:45.739Z,7132
2018-03-22T11:30:45.440Z,4568
2018-03-22T11:31:45.159Z,3092
2018-03-22T11:32:45.408Z,3488
2018-03-22T11:33:45.111Z,5224
2018-03-22T11:34:45.665Z,5320
2018-03-22T11:35:45.451Z,4252
2018-03-22T11:36:45.661Z,4384
2018-03-22T11:37:45.387Z,3936
2018-03-22T11:38:45.411Z,3252
2018-03-22T11:39:45.295Z,3388
2018-03-22T11:40:45.006Z,3728
2018-03-22T11:41:45.527Z,4496
2018-03-22T11:42:45.104Z,5600
2018-03-22T11:43:45.081Z,6124
2018-03-22T11:44:44.898Z,7156
2018-03-22T11:45:44.884Z,11196
2018-03-22T11:46:45.147Z,21376
2018-03-22T11:47:45.205Z,12948
2018-03-22T11:48:45.124Z,14888
2018-03-22T11:49:45.000Z,11508
2018-03-22T11:50:44.529Z,12304
2018-03-22T11:51:44.812Z,14332
2018-03-22T11:52:45.012Z,18176
2018-03-22T11:53:45.137Z,6848
2018-03-22T11:54:44.702Z,6796
2018-03-22T11:55:44.694Z,10544
2018-03-22T11:56:44.881Z,7232
2018-03-22T11:57:44.650Z,6324
2018-03-22T11:58:44.904Z,8120
2018-03-22T11:59:44.364Z,4644
2018-03-22T12:00:44.334Z,5560
2018-03-22T12:01:44.318Z,7060
2018-03-22T12:02:45.178Z,5808
2018-03-22T12:03:44.856Z,3660
2018-03-22T12:04:44.867Z,3588
2018-03-22T12:05:44.515Z,3728
2018-03-22T12:06:44.225Z,3824
2018-03-22T12:07:45.010Z,5568
2018-03-22T12:08:44.980Z,7928
2018-03-22T12:09:44.704Z,7784
2018-03-22T12:10:44.726Z,6164
2018-03-22T12:11:44.666Z,5376
2018-03-22T12:12:44.380Z,4732
2018-03-22T12:13:44.373Z,3972
2018-03-22T12:14:44.347Z,3116
2018-03-22T12:15:44.598Z,3692
2018-03-22T12:16:44.581Z,3140
2018-03-22T12:17:44.293Z,3336
2018-03-22T12:18:44.273Z,2596
2018-03-22T12:19:44.532Z,2428
2018-03-22T12:20:44.231Z,2300
2018-03-22T12:21:44.601Z,4068
2018-03-22T12:22:44.463Z,3072
2018-03-22T12:23:43.922Z,1992
2018-03-22T12:24:44.188Z,1736
2018-03-22T12:25:44.165Z,2132
2018-03-22T12:26:44.406Z,2432
2018-03-22T12:27:44.696Z,2660
2018-03-22T12:28:44.344Z,2048
2018-03-22T12:29:44.652Z,2024
2018-03-22T12:30:43.821Z,2084
2018-03-22T12:31:43.770Z,2088
2018-03-22T12:32:44.309Z,1864
2018-03-22T12:33:44.022Z,1888
2018-03-22T12:34:44.594Z,2332
2018-03-22T12:35:44.024Z,2112
2018-03-22T12:36:44.513Z,1660
2018-03-22T12:37:44.641Z,1660
2018-03-22T12:38:43.663Z,1720
2018-03-22T12:39:44.150Z,1980
2018-03-22T12:40:44.152Z,1856
2018-03-22T12:41:44.385Z,2312
2018-03-22T12:42:44.369Z,2076
2018-03-22T12:43:44.491Z,2028
2018-03-22T12:44:43.540Z,1948
2018-03-22T12:45:43.768Z,1792
2018-03-22T12:46:43.946Z,1892
2018-03-22T12:47:43.732Z,1920
2018-03-22T12:48:43.775Z,2164
2018-03-22T12:49:44.213Z,2384
2018-03-22T12:50:43.927Z,2544
2018-03-22T12:51:44.283Z,2252
2018-03-22T12:52:44.175Z,1716
2018-03-22T12:53:43.643Z,1792
2018-03-22T12:54:44.142Z,1896
2018-03-22T12:55:44.169Z,2260
2018-03-22T12:56:43.569Z,2636
2018-03-22T12:57:43.267Z,2740
2018-03-22T12:58:44.190Z,2588
2018-03-22T12:59:44.029Z,3964
2018-03-22T13:00:43.486Z,4512
2018-03-22T13:01:43.855Z,6276
2018-03-22T13:02:43.431Z,7200
2018-03-22T13:03:43.682Z,8800
2018-03-22T13:04:43.661Z,9672
2018-03-22T13:05:43.913Z,11028
2018-03-22T13:06:43.891Z,11296
2018-03-22T13:07:43.100Z,10464
2018-03-22T13:08:43.612Z,8688
2018-03-22T13:09:43.684Z,5588
2018-03-22T13:10:43.835Z,5528
2018-03-22T13:11:43.864Z,5304
2018-03-22T13:12:43.284Z,7604
2018-03-22T13:13:43.671Z,6876
2018-03-22T13:14:43.766Z,5020
2018-03-22T13:15:43.195Z,6496
2018-03-22T13:16:43.180Z,7584
2018-03-22T13:17:43.161Z,8208
2018-03-22T13:18:43.192Z,7944
2018-03-22T13:19:43.994Z,7560
2018-03-22T13:20:43.103Z,6536
2018-03-22T13:21:43.767Z,6312
2018-03-22T13:22:43.372Z,6716
2018-03-22T13:23:43.713Z,6404
2018-03-22T13:24:43.794Z,6436
2018-03-22T13:25:43.214Z,6592
2018-03-22T13:26:43.449Z,6408
2018-03-22T13:27:43.393Z,6616
2018-03-22T13:28:43.430Z,6344
2018-03-22T13:29:43.323Z,6276
2018-03-22T13:30:43.472Z,5180
2018-03-22T13:31:43.438Z,4476
2018-03-22T13:32:42.930Z,4740
2018-03-22T13:33:43.135Z,4980
2018-03-22T13:34:43.452Z,4700
2018-03-22T13:35:42.846Z,4352
2018-03-22T13:36:43.236Z,3776
2018-03-22T13:37:42.793Z,3284
2018-03-22T13:38:42.778Z,3016
2018-03-22T13:39:42.495Z,3084
2018-03-22T13:40:43.007Z,3024
2018-03-22T13:41:42.993Z,3200
2018-03-22T13:42:43.050Z,3372
2018-03-22T13:43:42.693Z,3680
2018-03-22T13:44:42.940Z,4000
2018-03-22T13:45:43.192Z,3940
2018-03-22T13:46:42.640Z,3484
2018-03-22T13:47:42.353Z,3500
2018-03-22T13:48:42.926Z,4192
2018-03-22T13:49:42.943Z,5064
2018-03-22T13:50:42.392Z,5700
2018-03-22T13:51:42.286Z,5428
2018-03-22T13:52:42.791Z,4304
2018-03-22T13:53:42.535Z,3440